Terminal Aerodrome Forecast
Issued by NWS

Home | Current Version | Previous Version | Text Only | Print | Product List | Glossary On
Versions: 1 2 3 4 5 6 7 8 9 10 11 12 13 14 15 16 17
000
FTUS42 KMLB 172342
TAFSFB
TAF
KSFB 172342Z 1800/1824 VRB04KT P6SM FEW040 SCT100
     FM181500 18005KT P6SM SCT030
     FM181900 16008KT P6SM VCTS SCT045CB=

USA.gov is the U.S. government's official web portal to all federal, state and local government web resources and services.